sensor_id;sensor_type;location;lat;lon;timestamp;pressure;altitude;pressure_sealevel;temperature;humidity
58775;BME280;44545;47.480;19.024;2023-04-25T03:10:41;99003.09;;;11.05;94.92
58775;BME280;44545;47.480;19.024;2023-04-25T03:13:44;99003.09;;;11.05;94.92
58775;BME280;44545;47.480;19.024;2023-04-25T03:16:47;98984.78;;;10.48;97.13
58775;BME280;44545;47.480;19.024;2023-04-25T03:19:51;98994.50;;;10.52;96.36
58775;BME280;44545;47.480;19.024;2023-04-25T03:22:54;98986.63;;;10.50;96.62
58775;BME280;44545;47.480;19.024;2023-04-25T03:25:56;98985.72;;;10.48;96.01
58775;BME280;44545;47.480;19.024;2023-04-25T03:28:59;98991.00;;;10.51;95.68
58775;BME280;44545;47.480;19.024;2023-04-25T03:32:02;98988.94;;;10.41;95.43
58775;BME280;44545;47.480;19.024;2023-04-25T03:35:04;98994.19;;;10.43;95.91
58775;BME280;44545;47.480;19.024;2023-04-25T03:38:08;98998.28;;;10.34;96.51
58775;BME280;44545;47.480;19.024;2023-04-25T03:41:10;98995.50;;;10.30;97.07
58775;BME280;44545;47.480;19.024;2023-04-25T03:44:13;98998.88;;;10.27;97.32
58775;BME280;44545;47.480;19.024;2023-04-25T03:47:16;98996.09;;;10.23;97.10
58775;BME280;44545;47.480;19.024;2023-04-25T03:50:18;99020.41;;;10.22;97.40
58775;BME280;44545;47.480;19.024;2023-04-25T03:53:21;99001.28;;;10.21;97.99
58775;BME280;44545;47.480;19.024;2023-04-25T03:56:25;99009.13;;;10.23;98.04
58775;BME280;44545;47.480;19.024;2023-04-25T03:59:28;99007.28;;;10.18;97.67
58775;BME280;44545;47.480;19.024;2023-04-25T04:02:30;99000.19;;;10.14;98.07
58775;BME280;44545;47.480;19.024;2023-04-25T04:05:34;99014.16;;;10.16;98.79
58775;BME280;44545;47.480;19.024;2023-04-25T04:08:37;99007.03;;;10.12;98.50
58775;BME280;44545;47.480;19.024;2023-04-25T04:11:39;99016.50;;;10.09;98.11
58775;BME280;44545;47.480;19.024;2023-04-25T04:14:42;99021.81;;;10.12;97.91
58775;BME280;44545;47.480;19.024;2023-04-25T04:17:45;99022.69;;;10.12;96.94
58775;BME280;44545;47.480;19.024;2023-04-25T04:20:49;99031.28;;;10.10;96.73
58775;BME280;44545;47.480;19.024;2023-04-25T04:23:52;99026.44;;;10.20;96.15
58775;BME280;44545;47.480;19.024;2023-04-25T04:26:55;99035.31;;;10.26;97.15
58775;BME280;44545;47.480;19.024;2023-04-25T04:30:00;99019.72;;;10.27;97.56
58775;BME280;44545;47.480;19.024;2023-04-25T04:33:04;99026.22;;;10.14;99.00
58775;BME280;44545;47.480;19.024;2023-04-25T04:36:07;99032.84;;;10.05;99.04
58775;BME280;44545;47.480;19.024;2023-04-25T04:39:09;99027.59;;;10.03;100.00
58775;BME280;44545;47.480;19.024;2023-04-25T04:42:13;99022.31;;;10.02;100.00
58775;BME280;44545;47.480;19.024;2023-04-25T04:45:16;99024.03;;;10.01;99.80
58775;BME280;44545;47.480;19.024;2023-04-25T04:48:19;99046.81;;;10.07;100.00
58775;BME280;44545;47.480;19.024;2023-04-25T04:51:27;99045.91;;;10.06;100.00
58775;BME280;44545;47.480;19.024;2023-04-25T04:54:31;99046.63;;;10.02;100.00
58775;BME280;44545;47.480;19.024;2023-04-25T04:57:34;99044.00;;;10.01;100.00
58775;BME280;44545;47.480;19.024;2023-04-25T05:00:37;99042.56;;;9.85;100.00
58775;BME280;44545;47.480;19.024;2023-04-25T05:03:41;99039.75;;;9.79;100.00
58775;BME280;44545;47.480;19.024;2023-04-25T05:06:44;99040.16;;;9.65;100.00
58775;BME280;44545;47.480;19.024;2023-04-25T05:09:49;99046.06;;;9.61;100.00
58775;BME280;44545;47.480;19.024;2023-04-25T05:12:52;99043.25;;;9.55;100.00
58775;BME280;44545;47.480;19.024;2023-04-25T05:15:55;99050.09;;;9.53;100.00
58775;BME280;44545;47.480;19.024;2023-04-25T05:18:57;99035.94;;;9.45;100.00
58775;BME280;44545;47.480;19.024;2023-04-25T05:22:01;99040.13;;;9.41;100.00
58775;BME280;44545;47.480;19.024;2023-04-25T05:25:04;99045.16;;;9.37;100.00
58775;BME280;44545;47.480;19.024;2023-04-25T05:28:07;99046.28;;;9.21;100.00
58775;BME280;44545;47.480;19.024;2023-04-25T05:31:11;99049.66;;;8.96;100.00
58775;BME280;44545;47.480;19.024;2023-04-25T05:34:13;99042.66;;;8.72;100.00
58775;BME280;44545;47.480;19.024;2023-04-25T05:37:17;99041.63;;;8.46;100.00
58775;BME280;44545;47.480;19.024;2023-04-25T05:40:20;99051.47;;;8.34;100.00
58775;BME280;44545;47.480;19.024;2023-04-25T05:43:23;99071.09;;;8.27;100.00
58775;BME280;44545;47.480;19.024;2023-04-25T05:46:26;99049.56;;;8.30;100.00
58775;BME280;44545;47.480;19.024;2023-04-25T05:49:29;99054.84;;;8.31;100.00
58775;BME280;44545;47.480;19.024;2023-04-25T05:52:31;99047.16;;;8.34;100.00
58775;BME280;44545;47.480;19.024;2023-04-25T05:55:35;99053.03;;;8.30;100.00
58775;BME280;44545;47.480;19.024;2023-04-25T05:58:39;99057.44;;;8.31;100.00
58775;BME280;44545;47.480;19.024;2023-04-25T06:01:42;99066.31;;;8.36;100.00
58775;BME280;44545;47.480;19.024;2023-04-25T06:04:45;99065.34;;;8.34;100.00
58775;BME280;44545;47.480;19.024;2023-04-25T06:07:47;99073.25;;;8.37;100.00
58775;BME280;44545;47.480;19.024;2023-04-25T06:10:50;99077.25;;;8.49;100.00
58775;BME280;44545;47.480;19.024;2023-04-25T06:13:53;99067.00;;;8.53;100.00
58775;BME280;44545;47.480;19.024;2023-04-25T06:16:56;99077.66;;;8.59;100.00
58775;BME280;44545;47.480;19.024;2023-04-25T06:19:58;99076.22;;;8.66;100.00
58775;BME280;44545;47.480;19.024;2023-04-25T06:23:01;99076.56;;;8.75;100.00
58775;BME280;44545;47.480;19.024;2023-04-25T06:26:05;99079.66;;;8.87;100.00
58775;BME280;44545;47.480;19.024;2023-04-25T06:29:08;99085.25;;;8.97;100.00
58775;BME280;44545;47.480;19.024;2023-04-25T06:32:11;99070.94;;;9.08;100.00
58775;BME280;44545;47.480;19.024;2023-04-25T06:35:13;99081.75;;;9.19;100.00
58775;BME280;44545;47.480;19.024;2023-04-25T06:38:16;99082.47;;;9.15;100.00
58775;BME280;44545;47.480;19.024;2023-04-25T06:41:19;99074.97;;;9.22;100.00
58775;BME280;44545;47.480;19.024;2023-04-25T06:44:22;99072.66;;;9.30;100.00
58775;BME280;44545;47.480;19.024;2023-04-25T06:47:26;99071.03;;;9.33;100.00
58775;BME280;44545;47.480;19.024;2023-04-25T06:50:28;99080.94;;;9.42;100.00
58775;BME280;44545;47.480;19.024;2023-04-25T06:53:31;99077.06;;;9.55;100.00
58775;BME280;44545;47.480;19.024;2023-04-25T06:56:34;99073.25;;;9.69;100.00
58775;BME280;44545;47.480;19.024;2023-04-25T06:59:37;99074.13;;;9.94;100.00
58775;BME280;44545;47.480;19.024;2023-04-25T07:02:39;99082.78;;;9.93;100.00
58775;BME280;44545;47.480;19.024;2023-04-25T07:05:44;99075.00;;;9.94;100.00
58775;BME280;44545;47.480;19.024;2023-04-25T07:08:48;99084.00;;;9.79;100.00
58775;BME280;44545;47.480;19.024;2023-04-25T07:11:51;99101.63;;;9.86;100.00
58775;BME280;44545;47.480;19.024;2023-04-25T07:14:53;99087.16;;;9.94;100.00
58775;BME280;44545;47.480;19.024;2023-04-25T07:17:57;99094.81;;;10.15;100.00
58775;BME280;44545;47.480;19.024;2023-04-25T07:20:59;99089.66;;;10.40;100.00
58775;BME280;44545;47.480;19.024;2023-04-25T07:24:03;99087.53;;;10.54;100.00
58775;BME280;44545;47.480;19.024;2023-04-25T07:27:06;99098.28;;;10.91;100.00
58775;BME280;44545;47.480;19.024;2023-04-25T07:30:09;99106.41;;;11.28;100.00
58775;BME280;44545;47.480;19.024;2023-04-25T07:33:13;99096.84;;;11.27;100.00
58775;BME280;44545;47.480;19.024;2023-04-25T07:36:16;99097.62;;;11.25;100.00
58775;BME280;44545;47.480;19.024;2023-04-25T07:39:19;99104.44;;;11.20;100.00
58775;BME280;44545;47.480;19.024;2023-04-25T07:42:22;99099.81;;;11.40;100.00
58775;BME280;44545;47.480;19.024;2023-04-25T07:45:25;99108.00;;;11.82;100.00
58775;BME280;44545;47.480;19.024;2023-04-25T07:48:28;99110.03;;;11.91;100.00
58775;BME280;44545;47.480;19.024;2023-04-25T07:51:31;99098.25;;;12.05;99.93
58775;BME280;44545;47.480;19.024;2023-04-25T07:54:37;99098.59;;;12.51;100.00
58775;BME280;44545;47.480;19.024;2023-04-25T07:57:40;99095.94;;;12.84;95.25
58775;BME280;44545;47.480;19.024;2023-04-25T08:00:44;99100.53;;;12.94;91.94
58775;BME280;44545;47.480;19.024;2023-04-25T08:03:48;99092.47;;;12.85;91.52
58775;BME280;44545;47.480;19.024;2023-04-25T08:06:52;99087.13;;;13.18;91.99
58775;BME280;44545;47.480;19.024;2023-04-25T08:09:56;99089.97;;;13.65;89.48
58775;BME280;44545;47.480;19.024;2023-04-25T08:13:00;99088.81;;;13.95;88.10
58775;BME280;44545;47.480;19.024;2023-04-25T08:16:04;99093.31;;;14.01;84.37
58775;BME280;44545;47.480;19.024;2023-04-25T08:19:10;99090.84;;;13.66;84.40
58775;BME280;44545;47.480;19.024;2023-04-25T08:22:13;99100.44;;;14.08;86.86
58775;BME280;44545;47.480;19.024;2023-04-25T08:25:17;99098.38;;;13.51;84.48
58775;BME280;44545;47.480;19.024;2023-04-25T08:28:20;99104.13;;;13.75;83.32
58775;BME280;44545;47.480;19.024;2023-04-25T08:31:23;99094.06;;;13.95;82.79
58775;BME280;44545;47.480;19.024;2023-04-25T08:34:26;99103.06;;;14.09;79.16
58775;BME280;44545;47.480;19.024;2023-04-25T08:37:29;99108.50;;;14.19;80.81
58775;BME280;44545;47.480;19.024;2023-04-25T08:40:35;99115.00;;;14.88;80.11
58775;BME280;44545;47.480;19.024;2023-04-25T08:43:42;99112.03;;;15.21;74.51
58775;BME280;44545;47.480;19.024;2023-04-25T08:46:46;99116.19;;;15.08;75.96
58775;BME280;44545;47.480;19.024;2023-04-25T08:49:53;99107.34;;;15.61;73.05
58775;BME280;44545;47.480;19.024;2023-04-25T08:52:59;99129.88;;;15.44;70.53
58775;BME280;44545;47.480;19.024;2023-04-25T08:56:06;99118.81;;;15.07;69.75
58775;BME280;44545;47.480;19.024;2023-04-25T08:59:10;99118.66;;;14.98;72.11
58775;BME280;44545;47.480;19.024;2023-04-25T09:02:12;99116.91;;;14.98;75.51
58775;BME280;44545;47.480;19.024;2023-04-25T09:05:20;99125.34;;;15.33;70.72
58775;BME280;44545;47.480;19.024;2023-04-25T09:08:26;99123.41;;;14.68;72.10
58775;BME280;44545;47.480;19.024;2023-04-25T09:11:28;99127.19;;;14.37;72.02
58775;BME280;44545;47.480;19.024;2023-04-25T09:14:32;99125.63;;;14.47;77.36
58775;BME280;44545;47.480;19.024;2023-04-25T09:17:35;99121.75;;;14.72;72.35
58775;BME280;44545;47.480;19.024;2023-04-25T09:20:43;99125.44;;;14.85;71.85
58775;BME280;44545;47.480;19.024;2023-04-25T09:24:03;99124.31;;;15.22;69.06
58775;BME280;44545;47.480;19.024;2023-04-25T09:27:10;99125.03;;;15.71;69.38
58775;BME280;44545;47.480;19.024;2023-04-25T09:30:15;99118.38;;;15.99;65.20
58775;BME280;44545;47.480;19.024;2023-04-25T09:33:29;99123.25;;;16.42;64.01
58775;BME280;44545;47.480;19.024;2023-04-25T09:36:34;99118.13;;;16.57;62.85
58775;BME280;44545;47.480;19.024;2023-04-25T09:39:37;99106.84;;;17.96;59.93
58775;BME280;44545;47.480;19.024;2023-04-25T09:42:42;99108.34;;;17.51;57.03
58775;BME280;44545;47.480;19.024;2023-04-25T09:45:44;99105.19;;;18.27;54.24
58775;BME280;44545;47.480;19.024;2023-04-25T09:48:50;99106.00;;;18.05;54.09
58775;BME280;44545;47.480;19.024;2023-04-25T09:51:56;99107.88;;;18.36;58.84
58775;BME280;44545;47.480;19.024;2023-04-25T09:54:59;99101.69;;;19.74;50.83
58775;BME280;44545;47.480;19.024;2023-04-25T09:58:05;99108.63;;;17.98;54.61
58775;BME280;44545;47.480;19.024;2023-04-25T10:01:11;99118.34;;;18.09;53.50
58775;BME280;44545;47.480;19.024;2023-04-25T10:04:19;99110.59;;;16.93;55.88
58775;BME280;44545;47.480;19.024;2023-04-25T10:07:25;99128.94;;;16.04;57.94
58775;BME280;44545;47.480;19.024;2023-04-25T10:10:29;99136.75;;;15.35;62.04
58775;BME280;44545;47.480;19.024;2023-04-25T10:13:34;99125.69;;;15.58;61.00
58775;BME280;44545;47.480;19.024;2023-04-25T10:16:37;99131.31;;;15.23;62.79
58775;BME280;44545;47.480;19.024;2023-04-25T10:19:40;99129.69;;;14.78;63.90
58775;BME280;44545;47.480;19.024;2023-04-25T10:22:44;99116.19;;;14.54;63.73
58775;BME280;44545;47.480;19.024;2023-04-25T10:25:49;99125.09;;;14.65;63.52
58775;BME280;44545;47.480;19.024;2023-04-25T10:29:02;99123.81;;;14.91;63.88
58775;BME280;44545;47.480;19.024;2023-04-25T10:32:05;99124.91;;;15.04;63.03
58775;BME280;44545;47.480;19.024;2023-04-25T10:35:18;99134.06;;;15.29;63.60
58775;BME280;44545;47.480;19.024;2023-04-25T10:38:21;99122.06;;;15.48;61.66
58775;BME280;44545;47.480;19.024;2023-04-25T10:41:23;99112.41;;;16.14;58.45
58775;BME280;44545;47.480;19.024;2023-04-25T10:44:27;99119.00;;;16.56;56.67
58775;BME280;44545;47.480;19.024;2023-04-25T10:47:43;99113.09;;;18.30;50.88
58775;BME280;44545;47.480;19.024;2023-04-25T10:50:49;99107.03;;;19.39;48.05
58775;BME280;44545;47.480;19.024;2023-04-25T10:53:58;99117.63;;;18.83;50.82
58775;BME280;44545;47.480;19.024;2023-04-25T10:57:01;99120.03;;;17.96;49.59
58775;BME280;44545;47.480;19.024;2023-04-25T11:03:07;99137.75;;;16.88;53.03
58775;BME280;44545;47.480;19.024;2023-04-25T11:06:36;99125.34;;;18.10;49.47
58775;BME280;44545;47.480;19.024;2023-04-25T11:09:44;99132.53;;;19.61;45.67
58775;BME280;44545;47.480;19.024;2023-04-25T11:12:47;99126.03;;;20.54;41.57
58775;BME280;44545;47.480;19.024;2023-04-25T11:19:13;99122.81;;;19.66;42.48
58775;BME280;44545;47.480;19.024;2023-04-25T11:22:15;99130.84;;;19.22;43.75
58775;BME280;44545;47.480;19.024;2023-04-25T11:25:18;99126.50;;;21.12;41.10
58775;BME280;44545;47.480;19.024;2023-04-25T11:28:21;99132.41;;;20.13;42.10
58775;BME280;44545;47.480;19.024;2023-04-25T11:31:29;99143.16;;;19.34;43.24
58775;BME280;44545;47.480;19.024;2023-04-25T11:34:32;99134.31;;;18.67;43.56
58775;BME280;44545;47.480;19.024;2023-04-25T11:37:36;99146.25;;;17.70;46.00
58775;BME280;44545;47.480;19.024;2023-04-25T11:40:38;99147.44;;;16.89;47.88
58775;BME280;44545;47.480;19.024;2023-04-25T11:43:43;99153.38;;;16.72;50.34
58775;BME280;44545;47.480;19.024;2023-04-25T11:46:46;99153.06;;;15.71;49.53
58775;BME280;44545;47.480;19.024;2023-04-25T11:49:48;99164.44;;;15.71;50.53
58775;BME280;44545;47.480;19.024;2023-04-25T11:52:51;99157.34;;;15.67;51.90
58775;BME280;44545;47.480;19.024;2023-04-25T11:55:54;99159.41;;;15.85;50.71
58775;BME280;44545;47.480;19.024;2023-04-25T11:58:57;99167.59;;;16.10;51.69
58775;BME280;44545;47.480;19.024;2023-04-25T12:02:00;99164.00;;;16.04;50.46
58775;BME280;44545;47.480;19.024;2023-04-25T12:05:08;99167.56;;;16.07;50.65
58775;BME280;44545;47.480;19.024;2023-04-25T12:08:31;99174.97;;;16.43;49.40
58775;BME280;44545;47.480;19.024;2023-04-25T12:11:48;99177.53;;;16.35;48.66
58775;BME280;44545;47.480;19.024;2023-04-25T12:14:50;99179.09;;;16.99;47.87
58775;BME280;44545;47.480;19.024;2023-04-25T12:17:54;99175.63;;;17.03;47.40
58775;BME280;44545;47.480;19.024;2023-04-25T12:20:59;99164.22;;;17.05;45.09
58775;BME280;44545;47.480;19.024;2023-04-25T12:24:13;99150.81;;;17.95;45.51
58775;BME280;44545;47.480;19.024;2023-04-25T12:27:16;99162.25;;;17.93;42.85
58775;BME280;44545;47.480;19.024;2023-04-25T12:30:27;99155.75;;;17.46;43.70
58775;BME280;44545;47.480;19.024;2023-04-25T12:33:34;99163.06;;;17.83;44.64
58775;BME280;44545;47.480;19.024;2023-04-25T12:36:37;99150.56;;;17.59;44.14
58775;BME280;44545;47.480;19.024;2023-04-25T12:39:39;99168.22;;;17.67;47.76
58775;BME280;44545;47.480;19.024;2023-04-25T12:42:41;99145.88;;;17.15;42.11
58775;BME280;44545;47.480;19.024;2023-04-25T12:45:50;99144.06;;;17.04;45.66
58775;BME280;44545;47.480;19.024;2023-04-25T12:48:53;99143.84;;;16.83;42.89
58775;BME280;44545;47.480;19.024;2023-04-25T12:52:03;99141.56;;;16.34;43.52
58775;BME280;44545;47.480;19.024;2023-04-25T12:55:06;99136.25;;;16.30;44.73
58775;BME280;44545;47.480;19.024;2023-04-25T12:58:08;99132.50;;;16.06;42.63
58775;BME280;44545;47.480;19.024;2023-04-25T13:01:11;99139.34;;;15.93;43.96
58775;BME280;44545;47.480;19.024;2023-04-25T13:04:14;99129.75;;;16.00;45.75
58775;BME280;44545;47.480;19.024;2023-04-25T13:07:18;99143.81;;;16.02;45.59
58775;BME280;44545;47.480;19.024;2023-04-25T13:10:20;99126.47;;;16.18;44.92
58775;BME280;44545;47.480;19.024;2023-04-25T13:13:23;99145.88;;;16.26;44.77
58775;BME280;44545;47.480;19.024;2023-04-25T13:16:25;99139.34;;;15.93;44.31
58775;BME280;44545;47.480;19.024;2023-04-25T13:19:29;99121.88;;;16.00;46.43
58775;BME280;44545;47.480;19.024;2023-04-25T13:22:31;99129.75;;;16.00;42.60
58775;BME280;44545;47.480;19.024;2023-04-25T13:25:34;99129.78;;;15.98;42.87
58775;BME280;44545;47.480;19.024;2023-04-25T13:28:36;99128.59;;;15.76;43.06
58775;BME280;44545;47.480;19.024;2023-04-25T13:31:38;99115.63;;;15.89;43.82
58775;BME280;44545;47.480;19.024;2023-04-25T13:34:40;99121.25;;;16.19;42.94
58775;BME280;44545;47.480;19.024;2023-04-25T13:37:43;99121.28;;;16.24;42.69
58775;BME280;44545;47.480;19.024;2023-04-25T13:40:45;99120.28;;;16.11;43.04
58775;BME280;44545;47.480;19.024;2023-04-25T13:43:47;99113.34;;;16.19;43.06
58775;BME280;44545;47.480;19.024;2023-04-25T13:46:50;99119.41;;;16.11;42.54
58775;BME280;44545;47.480;19.024;2023-04-25T13:49:53;99102.63;;;16.01;42.09
58775;BME280;44545;47.480;19.024;2023-04-25T13:52:56;99115.00;;;16.08;41.99
58775;BME280;44545;47.480;19.024;2023-04-25T13:55:59;99107.75;;;15.92;42.06
58775;BME280;44545;47.480;19.024;2023-04-25T13:59:01;99106.84;;;15.88;43.14
58775;BME280;44545;47.480;19.024;2023-04-25T14:02:04;99108.66;;;15.94;43.31
58775;BME280;44545;47.480;19.024;2023-04-25T14:05:07;99107.25;;;16.20;41.47
58775;BME280;44545;47.480;19.024;2023-04-25T14:08:10;99102.63;;;16.02;44.12
58775;BME280;44545;47.480;19.024;2023-04-25T14:11:12;99103.50;;;16.01;42.22
58775;BME280;44545;47.480;19.024;2023-04-25T14:14:14;99114.09;;;16.09;41.71
58775;BME280;44545;47.480;19.024;2023-04-25T14:17:19;99112.75;;;15.70;41.06
58775;BME280;44545;47.480;19.024;2023-04-25T14:20:21;99107.78;;;15.93;41.59
58775;BME280;44545;47.480;19.024;2023-04-25T14:23:26;99117.75;;;16.22;41.54
58775;BME280;44545;47.480;19.024;2023-04-25T14:26:28;99120.28;;;16.13;41.15
58775;BME280;44545;47.480;19.024;2023-04-25T14:29:31;99118.38;;;15.98;39.49
58775;BME280;44545;47.480;19.024;2023-04-25T14:32:33;99115.50;;;15.79;39.67
58775;BME280;44545;47.480;19.024;2023-04-25T14:35:35;99113.88;;;15.89;41.00
58775;BME280;44545;47.480;19.024;2023-04-25T14:38:37;99112.31;;;16.03;40.37
58775;BME280;44545;47.480;19.024;2023-04-25T14:41:40;99107.69;;;15.86;40.98
58775;BME280;44545;47.480;19.024;2023-04-25T14:44:42;99115.63;;;15.89;40.00
58775;BME280;44545;47.480;19.024;2023-04-25T14:47:45;99106.94;;;15.96;40.42
58775;BME280;44545;47.480;19.024;2023-04-25T14:50:47;99100.78;;;15.94;41.69
58775;BME280;44545;47.480;19.024;2023-04-25T14:53:50;99115.84;;;16.07;39.69
58775;BME280;44545;47.480;19.024;2023-04-25T14:56:53;99106.88;;;15.91;41.54
58775;BME280;44545;47.480;19.024;2023-04-25T14:59:55;99120.56;;;15.67;39.46
58775;BME280;44545;47.480;19.024;2023-04-25T15:02:58;99130.09;;;15.59;39.70
58775;BME280;44545;47.480;19.024;2023-04-25T15:06:01;99121.06;;;15.42;40.70
58775;BME280;44545;47.480;19.024;2023-04-25T15:09:03;99121.12;;;15.45;41.06
58775;BME280;44545;47.480;19.024;2023-04-25T15:12:06;99130.75;;;15.43;40.11
58775;BME280;44545;47.480;19.024;2023-04-25T15:15:09;99122.03;;;15.47;40.19
58775;BME280;44545;47.480;19.024;2023-04-25T15:18:26;99124.66;;;15.47;40.94
58775;BME280;44545;47.480;19.024;2023-04-25T15:21:30;99127.38;;;15.54;40.61
